sensor_id;sensor_type;location;lat;lon;timestamp;P1;durP1;ratioP1;P2;durP2;ratioP2
19183;SDS011;9724;51.194;6.856;2023-08-12T00:01:53;31.47;;;20.33;;
19183;SDS011;9724;51.194;6.856;2023-08-12T00:04:19;34.73;;;20.07;;
19183;SDS011;9724;51.194;6.856;2023-08-12T00:06:45;36.03;;;20.27;;
19183;SDS011;9724;51.194;6.856;2023-08-12T00:09:12;32.70;;;20.53;;
19183;SDS011;9724;51.194;6.856;2023-08-12T00:11:40;30.70;;;20.03;;
19183;SDS011;9724;51.194;6.856;2023-08-12T00:14:07;34.37;;;19.50;;
19183;SDS011;9724;51.194;6.856;2023-08-12T00:16:34;34.70;;;20.73;;
19183;SDS011;9724;51.194;6.856;2023-08-12T00:19:00;31.43;;;19.97;;
19183;SDS011;9724;51.194;6.856;2023-08-12T00:21:27;36.03;;;21.30;;
19183;SDS011;9724;51.194;6.856;2023-08-12T00:23:53;31.10;;;20.63;;
19183;SDS011;9724;51.194;6.856;2023-08-12T00:26:19;30.40;;;20.57;;
19183;SDS011;9724;51.194;6.856;2023-08-12T00:28:48;36.13;;;21.07;;
19183;SDS011;9724;51.194;6.856;2023-08-12T00:31:14;32.30;;;21.00;;
19183;SDS011;9724;51.194;6.856;2023-08-12T00:33:41;37.57;;;21.40;;
19183;SDS011;9724;51.194;6.856;2023-08-12T00:36:08;34.93;;;20.93;;
19183;SDS011;9724;51.194;6.856;2023-08-12T00:38:34;36.73;;;20.87;;
19183;SDS011;9724;51.194;6.856;2023-08-12T00:41:01;33.93;;;19.83;;
19183;SDS011;9724;51.194;6.856;2023-08-12T00:43:28;37.03;;;21.23;;
19183;SDS011;9724;51.194;6.856;2023-08-12T00:45:54;31.03;;;20.80;;
19183;SDS011;9724;51.194;6.856;2023-08-12T00:48:21;33.67;;;21.30;;
19183;SDS011;9724;51.194;6.856;2023-08-12T00:50:49;34.03;;;21.87;;
19183;SDS011;9724;51.194;6.856;2023-08-12T00:53:15;40.30;;;23.03;;
19183;SDS011;9724;51.194;6.856;2023-08-12T00:55:42;38.23;;;23.17;;
19183;SDS011;9724;51.194;6.856;2023-08-12T00:58:08;39.63;;;21.93;;
19183;SDS011;9724;51.194;6.856;2023-08-12T01:00:35;38.77;;;21.97;;
19183;SDS011;9724;51.194;6.856;2023-08-12T01:03:01;34.13;;;21.23;;
19183;SDS011;9724;51.194;6.856;2023-08-12T01:05:29;35.83;;;21.40;;
19183;SDS011;9724;51.194;6.856;2023-08-12T01:07:57;35.83;;;21.37;;
19183;SDS011;9724;51.194;6.856;2023-08-12T01:10:24;33.90;;;19.83;;
19183;SDS011;9724;51.194;6.856;2023-08-12T01:12:56;40.37;;;22.07;;
19183;SDS011;9724;51.194;6.856;2023-08-12T01:15:27;32.80;;;21.47;;
19183;SDS011;9724;51.194;6.856;2023-08-12T01:17:55;34.63;;;21.47;;
19183;SDS011;9724;51.194;6.856;2023-08-12T01:20:22;34.90;;;21.00;;
19183;SDS011;9724;51.194;6.856;2023-08-12T01:22:52;38.23;;;21.03;;
19183;SDS011;9724;51.194;6.856;2023-08-12T01:25:24;36.93;;;20.10;;
19183;SDS011;9724;51.194;6.856;2023-08-12T01:27:50;33.77;;;19.17;;
19183;SDS011;9724;51.194;6.856;2023-08-12T01:30:16;32.23;;;19.63;;
19183;SDS011;9724;51.194;6.856;2023-08-12T01:32:45;30.87;;;19.07;;
19183;SDS011;9724;51.194;6.856;2023-08-12T01:35:16;29.17;;;18.17;;
19183;SDS011;9724;51.194;6.856;2023-08-12T01:37:44;31.43;;;17.80;;
19183;SDS011;9724;51.194;6.856;2023-08-12T01:40:11;28.03;;;18.33;;
19183;SDS011;9724;51.194;6.856;2023-08-12T01:42:38;32.00;;;18.77;;
19183;SDS011;9724;51.194;6.856;2023-08-12T01:45:06;28.43;;;18.03;;
19183;SDS011;9724;51.194;6.856;2023-08-12T01:47:33;28.47;;;18.30;;
19183;SDS011;9724;51.194;6.856;2023-08-12T01:49:59;31.90;;;19.10;;
19183;SDS011;9724;51.194;6.856;2023-08-12T01:52:25;30.33;;;18.80;;
19183;SDS011;9724;51.194;6.856;2023-08-12T01:54:52;32.43;;;18.40;;
19183;SDS011;9724;51.194;6.856;2023-08-12T01:57:18;34.33;;;18.43;;
19183;SDS011;9724;51.194;6.856;2023-08-12T01:59:45;38.27;;;20.07;;
19183;SDS011;9724;51.194;6.856;2023-08-12T02:02:11;35.27;;;20.10;;
19183;SDS011;9724;51.194;6.856;2023-08-12T02:04:38;33.27;;;20.07;;
19183;SDS011;9724;51.194;6.856;2023-08-12T02:07:05;31.63;;;20.13;;
19183;SDS011;9724;51.194;6.856;2023-08-12T02:09:32;33.67;;;19.07;;
19183;SDS011;9724;51.194;6.856;2023-08-12T02:11:58;31.33;;;18.73;;
19183;SDS011;9724;51.194;6.856;2023-08-12T02:14:24;29.93;;;18.20;;
19183;SDS011;9724;51.194;6.856;2023-08-12T02:16:51;33.33;;;18.97;;
19183;SDS011;9724;51.194;6.856;2023-08-12T02:19:18;27.03;;;17.57;;
19183;SDS011;9724;51.194;6.856;2023-08-12T02:21:44;26.47;;;17.57;;
19183;SDS011;9724;51.194;6.856;2023-08-12T02:24:10;27.97;;;17.87;;
19183;SDS011;9724;51.194;6.856;2023-08-12T02:26:37;29.47;;;17.63;;
19183;SDS011;9724;51.194;6.856;2023-08-12T02:29:03;33.23;;;18.83;;
19183;SDS011;9724;51.194;6.856;2023-08-12T02:31:30;31.63;;;18.27;;
19183;SDS011;9724;51.194;6.856;2023-08-12T02:33:57;26.60;;;18.80;;
19183;SDS011;9724;51.194;6.856;2023-08-12T02:36:23;31.03;;;18.83;;
19183;SDS011;9724;51.194;6.856;2023-08-12T02:38:50;26.20;;;18.10;;
19183;SDS011;9724;51.194;6.856;2023-08-12T02:41:17;28.20;;;17.83;;
19183;SDS011;9724;51.194;6.856;2023-08-12T02:43:43;31.60;;;19.17;;
19183;SDS011;9724;51.194;6.856;2023-08-12T02:46:09;27.87;;;18.47;;
19183;SDS011;9724;51.194;6.856;2023-08-12T02:48:36;28.43;;;17.60;;
19183;SDS011;9724;51.194;6.856;2023-08-12T02:51:04;27.30;;;17.00;;
19183;SDS011;9724;51.194;6.856;2023-08-12T02:53:31;25.93;;;16.33;;
19183;SDS011;9724;51.194;6.856;2023-08-12T02:55:58;23.87;;;15.10;;
19183;SDS011;9724;51.194;6.856;2023-08-12T02:58:24;24.00;;;14.80;;
19183;SDS011;9724;51.194;6.856;2023-08-12T03:00:51;28.53;;;15.70;;
19183;SDS011;9724;51.194;6.856;2023-08-12T03:03:18;22.73;;;13.93;;
19183;SDS011;9724;51.194;6.856;2023-08-12T03:05:45;26.97;;;15.07;;
19183;SDS011;9724;51.194;6.856;2023-08-12T03:08:12;24.47;;;13.50;;
19183;SDS011;9724;51.194;6.856;2023-08-12T03:10:39;25.97;;;13.67;;
19183;SDS011;9724;51.194;6.856;2023-08-12T03:13:05;23.50;;;11.80;;
19183;SDS011;9724;51.194;6.856;2023-08-12T03:15:31;24.33;;;13.10;;
19183;SDS011;9724;51.194;6.856;2023-08-12T03:17:58;25.50;;;12.67;;
19183;SDS011;9724;51.194;6.856;2023-08-12T03:20:24;20.10;;;12.23;;
19183;SDS011;9724;51.194;6.856;2023-08-12T03:22:51;27.80;;;12.77;;
19183;SDS011;9724;51.194;6.856;2023-08-12T03:25:18;21.63;;;13.27;;
19183;SDS011;9724;51.194;6.856;2023-08-12T03:27:45;23.60;;;13.80;;
19183;SDS011;9724;51.194;6.856;2023-08-12T03:30:12;21.73;;;14.20;;
19183;SDS011;9724;51.194;6.856;2023-08-12T03:32:38;22.10;;;12.90;;
19183;SDS011;9724;51.194;6.856;2023-08-12T03:35:04;25.83;;;13.77;;
19183;SDS011;9724;51.194;6.856;2023-08-12T03:37:31;23.37;;;14.60;;
19183;SDS011;9724;51.194;6.856;2023-08-12T03:39:57;26.53;;;15.20;;
19183;SDS011;9724;51.194;6.856;2023-08-12T03:42:24;23.20;;;14.50;;
19183;SDS011;9724;51.194;6.856;2023-08-12T03:44:50;28.50;;;15.40;;
19183;SDS011;9724;51.194;6.856;2023-08-12T03:47:17;26.40;;;15.53;;
19183;SDS011;9724;51.194;6.856;2023-08-12T03:49:47;31.53;;;16.40;;
19183;SDS011;9724;51.194;6.856;2023-08-12T03:52:14;29.43;;;17.73;;
19183;SDS011;9724;51.194;6.856;2023-08-12T03:54:40;31.47;;;17.70;;
19183;SDS011;9724;51.194;6.856;2023-08-12T03:57:07;28.63;;;18.03;;
19183;SDS011;9724;51.194;6.856;2023-08-12T03:59:34;26.10;;;17.50;;
19183;SDS011;9724;51.194;6.856;2023-08-12T04:02:00;25.77;;;16.43;;
19183;SDS011;9724;51.194;6.856;2023-08-12T04:04:27;25.93;;;16.37;;
19183;SDS011;9724;51.194;6.856;2023-08-12T04:06:54;25.63;;;16.10;;
19183;SDS011;9724;51.194;6.856;2023-08-12T04:09:21;23.40;;;14.43;;
19183;SDS011;9724;51.194;6.856;2023-08-12T04:11:49;21.50;;;13.87;;
19183;SDS011;9724;51.194;6.856;2023-08-12T04:14:17;16.83;;;12.20;;
19183;SDS011;9724;51.194;6.856;2023-08-12T04:16:44;24.30;;;14.10;;
19183;SDS011;9724;51.194;6.856;2023-08-12T04:19:11;24.60;;;13.13;;
19183;SDS011;9724;51.194;6.856;2023-08-12T04:21:37;18.40;;;12.40;;
19183;SDS011;9724;51.194;6.856;2023-08-12T04:24:04;22.77;;;12.90;;
19183;SDS011;9724;51.194;6.856;2023-08-12T04:26:31;23.87;;;13.70;;
19183;SDS011;9724;51.194;6.856;2023-08-12T04:28:57;20.07;;;13.10;;
19183;SDS011;9724;51.194;6.856;2023-08-12T04:31:24;21.27;;;12.93;;
19183;SDS011;9724;51.194;6.856;2023-08-12T04:33:51;21.60;;;12.13;;
19183;SDS011;9724;51.194;6.856;2023-08-12T04:36:18;20.40;;;12.43;;
19183;SDS011;9724;51.194;6.856;2023-08-12T04:38:45;25.60;;;12.17;;
19183;SDS011;9724;51.194;6.856;2023-08-12T04:41:11;23.20;;;11.67;;
19183;SDS011;9724;51.194;6.856;2023-08-12T04:43:37;19.00;;;11.37;;
19183;SDS011;9724;51.194;6.856;2023-08-12T04:46:04;18.77;;;11.07;;
19183;SDS011;9724;51.194;6.856;2023-08-12T04:48:30;15.43;;;9.83;;
19183;SDS011;9724;51.194;6.856;2023-08-12T04:50:58;14.30;;;10.20;;
19183;SDS011;9724;51.194;6.856;2023-08-12T04:53:26;15.57;;;10.23;;
19183;SDS011;9724;51.194;6.856;2023-08-12T04:55:53;17.43;;;10.17;;
19183;SDS011;9724;51.194;6.856;2023-08-12T04:58:20;17.23;;;10.23;;
19183;SDS011;9724;51.194;6.856;2023-08-12T05:00:47;16.50;;;9.97;;
19183;SDS011;9724;51.194;6.856;2023-08-12T05:03:13;17.43;;;10.00;;
19183;SDS011;9724;51.194;6.856;2023-08-12T05:05:39;17.33;;;10.10;;
19183;SDS011;9724;51.194;6.856;2023-08-12T05:08:06;14.80;;;10.60;;
19183;SDS011;9724;51.194;6.856;2023-08-12T05:10:33;19.63;;;9.90;;
19183;SDS011;9724;51.194;6.856;2023-08-12T05:12:59;16.07;;;10.07;;
19183;SDS011;9724;51.194;6.856;2023-08-12T05:15:25;18.33;;;9.43;;
19183;SDS011;9724;51.194;6.856;2023-08-12T05:17:52;13.73;;;9.67;;
19183;SDS011;9724;51.194;6.856;2023-08-12T05:20:18;17.20;;;10.20;;
19183;SDS011;9724;51.194;6.856;2023-08-12T05:22:44;13.30;;;10.90;;
19183;SDS011;9724;51.194;6.856;2023-08-12T05:25:11;19.40;;;11.07;;
19183;SDS011;9724;51.194;6.856;2023-08-12T05:27:39;23.60;;;12.23;;
19183;SDS011;9724;51.194;6.856;2023-08-12T05:30:06;19.67;;;10.57;;
19183;SDS011;9724;51.194;6.856;2023-08-12T05:32:33;19.40;;;10.80;;
19183;SDS011;9724;51.194;6.856;2023-08-12T05:34:59;19.70;;;10.93;;
19183;SDS011;9724;51.194;6.856;2023-08-12T05:37:27;16.67;;;10.40;;
19183;SDS011;9724;51.194;6.856;2023-08-12T05:39:54;15.27;;;10.40;;
19183;SDS011;9724;51.194;6.856;2023-08-12T05:42:21;16.57;;;10.70;;
19183;SDS011;9724;51.194;6.856;2023-08-12T05:44:48;17.70;;;11.07;;
19183;SDS011;9724;51.194;6.856;2023-08-12T05:47:15;19.77;;;11.53;;
19183;SDS011;9724;51.194;6.856;2023-08-12T05:49:41;15.83;;;11.43;;
19183;SDS011;9724;51.194;6.856;2023-08-12T05:52:08;14.97;;;11.37;;
19183;SDS011;9724;51.194;6.856;2023-08-12T05:54:34;22.27;;;11.93;;
19183;SDS011;9724;51.194;6.856;2023-08-12T05:57:01;18.87;;;12.67;;
19183;SDS011;9724;51.194;6.856;2023-08-12T05:59:29;16.33;;;12.00;;
19183;SDS011;9724;51.194;6.856;2023-08-12T06:01:55;17.37;;;11.90;;
19183;SDS011;9724;51.194;6.856;2023-08-12T06:04:21;16.60;;;12.23;;
19183;SDS011;9724;51.194;6.856;2023-08-12T06:06:48;22.17;;;11.80;;
19183;SDS011;9724;51.194;6.856;2023-08-12T06:09:14;15.30;;;11.30;;
19183;SDS011;9724;51.194;6.856;2023-08-12T06:11:40;19.30;;;11.40;;
19183;SDS011;9724;51.194;6.856;2023-08-12T06:14:07;19.70;;;12.13;;
19183;SDS011;9724;51.194;6.856;2023-08-12T06:16:34;21.70;;;12.40;;
19183;SDS011;9724;51.194;6.856;2023-08-12T06:19:00;18.47;;;12.37;;
19183;SDS011;9724;51.194;6.856;2023-08-12T06:21:27;13.63;;;10.53;;
19183;SDS011;9724;51.194;6.856;2023-08-12T06:23:53;20.07;;;12.03;;
19183;SDS011;9724;51.194;6.856;2023-08-12T06:26:19;20.97;;;12.00;;
19183;SDS011;9724;51.194;6.856;2023-08-12T06:28:46;18.23;;;11.90;;
19183;SDS011;9724;51.194;6.856;2023-08-12T06:31:13;18.63;;;11.13;;
19183;SDS011;9724;51.194;6.856;2023-08-12T06:33:40;21.93;;;11.40;;
19183;SDS011;9724;51.194;6.856;2023-08-12T06:36:06;16.13;;;10.40;;
19183;SDS011;9724;51.194;6.856;2023-08-12T06:38:32;16.43;;;10.67;;
19183;SDS011;9724;51.194;6.856;2023-08-12T06:40:59;16.23;;;11.27;;
19183;SDS011;9724;51.194;6.856;2023-08-12T06:43:26;19.10;;;11.40;;
19183;SDS011;9724;51.194;6.856;2023-08-12T06:45:55;14.47;;;10.13;;
19183;SDS011;9724;51.194;6.856;2023-08-12T06:48:22;18.03;;;9.93;;
19183;SDS011;9724;51.194;6.856;2023-08-12T06:50:53;19.47;;;10.70;;
19183;SDS011;9724;51.194;6.856;2023-08-12T06:53:20;14.80;;;10.50;;
19183;SDS011;9724;51.194;6.856;2023-08-12T06:55:46;16.20;;;11.00;;
19183;SDS011;9724;51.194;6.856;2023-08-12T06:58:13;19.07;;;10.87;;
19183;SDS011;9724;51.194;6.856;2023-08-12T07:00:39;16.60;;;9.50;;
19183;SDS011;9724;51.194;6.856;2023-08-12T07:03:06;14.23;;;10.03;;
19183;SDS011;9724;51.194;6.856;2023-08-12T07:05:32;14.60;;;10.07;;
19183;SDS011;9724;51.194;6.856;2023-08-12T07:07:59;13.37;;;9.97;;
19183;SDS011;9724;51.194;6.856;2023-08-12T07:10:25;12.70;;;9.37;;
19183;SDS011;9724;51.194;6.856;2023-08-12T07:12:55;19.03;;;9.77;;
19183;SDS011;9724;51.194;6.856;2023-08-12T07:15:21;16.37;;;9.77;;
19183;SDS011;9724;51.194;6.856;2023-08-12T07:17:47;9.33;;;8.13;;
19183;SDS011;9724;51.194;6.856;2023-08-12T07:20:14;10.33;;;7.70;;
19183;SDS011;9724;51.194;6.856;2023-08-12T07:22:40;9.80;;;8.10;;
19183;SDS011;9724;51.194;6.856;2023-08-12T07:25:08;11.40;;;8.10;;
19183;SDS011;9724;51.194;6.856;2023-08-12T07:27:35;13.40;;;8.30;;
19183;SDS011;9724;51.194;6.856;2023-08-12T07:30:01;13.13;;;9.07;;
19183;SDS011;9724;51.194;6.856;2023-08-12T07:32:29;12.60;;;8.00;;
19183;SDS011;9724;51.194;6.856;2023-08-12T07:34:55;12.77;;;8.97;;
19183;SDS011;9724;51.194;6.856;2023-08-12T07:37:22;12.47;;;8.57;;
19183;SDS011;9724;51.194;6.856;2023-08-12T07:39:49;13.03;;;8.53;;
19183;SDS011;9724;51.194;6.856;2023-08-12T07:42:16;12.53;;;8.13;;
19183;SDS011;9724;51.194;6.856;2023-08-12T07:44:43;11.23;;;8.53;;
19183;SDS011;9724;51.194;6.856;2023-08-12T07:47:09;11.80;;;7.93;;
19183;SDS011;9724;51.194;6.856;2023-08-12T07:49:35;8.97;;;7.87;;
19183;SDS011;9724;51.194;6.856;2023-08-12T07:52:02;11.10;;;7.70;;
19183;SDS011;9724;51.194;6.856;2023-08-12T07:54:29;11.77;;;8.50;;
19183;SDS011;9724;51.194;6.856;2023-08-12T07:56:56;9.80;;;8.03;;
19183;SDS011;9724;51.194;6.856;2023-08-12T07:59:24;10.30;;;7.23;;
19183;SDS011;9724;51.194;6.856;2023-08-12T08:01:51;10.17;;;7.83;;
19183;SDS011;9724;51.194;6.856;2023-08-12T08:04:17;12.90;;;7.93;;
19183;SDS011;9724;51.194;6.856;2023-08-12T08:06:43;10.30;;;7.40;;
19183;SDS011;9724;51.194;6.856;2023-08-12T08:09:10;9.17;;;7.40;;
19183;SDS011;9724;51.194;6.856;2023-08-12T08:11:36;7.87;;;6.30;;
19183;SDS011;9724;51.194;6.856;2023-08-12T08:14:03;10.33;;;6.40;;
19183;SDS011;9724;51.194;6.856;2023-08-12T08:16:30;11.47;;;6.80;;
19183;SDS011;9724;51.194;6.856;2023-08-12T08:18:57;7.63;;;6.07;;
19183;SDS011;9724;51.194;6.856;2023-08-12T08:21:24;12.50;;;6.00;;
19183;SDS011;9724;51.194;6.856;2023-08-12T08:23:51;8.67;;;6.10;;
19183;SDS011;9724;51.194;6.856;2023-08-12T08:26:18;9.43;;;5.70;;
19183;SDS011;9724;51.194;6.856;2023-08-12T08:28:46;7.47;;;5.60;;
19183;SDS011;9724;51.194;6.856;2023-08-12T08:31:12;5.90;;;5.10;;
19183;SDS011;9724;51.194;6.856;2023-08-12T08:33:39;4.97;;;3.80;;
19183;SDS011;9724;51.194;6.856;2023-08-12T08:36:10;4.50;;;3.97;;
19183;SDS011;9724;51.194;6.856;2023-08-12T08:38:37;7.20;;;3.97;;
19183;SDS011;9724;51.194;6.856;2023-08-12T08:41:03;5.73;;;3.53;;
19183;SDS011;9724;51.194;6.856;2023-08-12T08:43:32;4.23;;;3.33;;
19183;SDS011;9724;51.194;6.856;2023-08-12T08:46:01;6.23;;;3.97;;
19183;SDS011;9724;51.194;6.856;2023-08-12T08:48:27;4.33;;;3.50;;
19183;SDS011;9724;51.194;6.856;2023-08-12T08:50:55;6.77;;;3.47;;
19183;SDS011;9724;51.194;6.856;2023-08-12T08:53:22;3.30;;;3.00;;
19183;SDS011;9724;51.194;6.856;2023-08-12T08:55:48;3.33;;;2.97;;
19183;SDS011;9724;51.194;6.856;2023-08-12T08:58:15;5.70;;;3.67;;
19183;SDS011;9724;51.194;6.856;2023-08-12T09:00:48;5.00;;;3.70;;
19183;SDS011;9724;51.194;6.856;2023-08-12T09:03:14;3.67;;;3.37;;
19183;SDS011;9724;51.194;6.856;2023-08-12T09:05:40;7.93;;;3.60;;
19183;SDS011;9724;51.194;6.856;2023-08-12T09:08:09;5.37;;;4.17;;
19183;SDS011;9724;51.194;6.856;2023-08-12T09:10:36;4.33;;;3.43;;
19183;SDS011;9724;51.194;6.856;2023-08-12T09:13:05;6.13;;;3.70;;
19183;SDS011;9724;51.194;6.856;2023-08-12T09:15:35;4.30;;;3.57;;
19183;SDS011;9724;51.194;6.856;2023-08-12T09:18:03;5.80;;;3.87;;
19183;SDS011;9724;51.194;6.856;2023-08-12T09:20:32;5.60;;;3.80;;
19183;SDS011;9724;51.194;6.856;2023-08-12T09:22:59;3.90;;;3.30;;
19183;SDS011;9724;51.194;6.856;2023-08-12T09:25:27;10.57;;;3.30;;
19183;SDS011;9724;51.194;6.856;2023-08-12T09:27:55;6.60;;;3.63;;
19183;SDS011;9724;51.194;6.856;2023-08-12T09:30:25;3.73;;;3.43;;
19183;SDS011;9724;51.194;6.856;2023-08-12T09:33:00;4.60;;;3.30;;
19183;SDS011;9724;51.194;6.856;2023-08-12T09:35:31;4.50;;;3.47;;
19183;SDS011;9724;51.194;6.856;2023-08-12T09:38:02;5.83;;;3.13;;
19183;SDS011;9724;51.194;6.856;2023-08-12T09:40:30;6.17;;;2.80;;
19183;SDS011;9724;51.194;6.856;2023-08-12T09:42:57;5.33;;;3.27;;
19183;SDS011;9724;51.194;6.856;2023-08-12T09:45:25;5.73;;;2.93;;
19183;SDS011;9724;51.194;6.856;2023-08-12T09:47:52;3.77;;;2.80;;
19183;SDS011;9724;51.194;6.856;2023-08-12T09:50:20;3.30;;;3.00;;
19183;SDS011;9724;51.194;6.856;2023-08-12T09:52:47;6.53;;;2.50;;
19183;SDS011;9724;51.194;6.856;2023-08-12T09:55:14;2.77;;;2.47;;
19183;SDS011;9724;51.194;6.856;2023-08-12T09:57:43;4.13;;;2.77;;
19183;SDS011;9724;51.194;6.856;2023-08-12T10:00:10;3.30;;;3.00;;
19183;SDS011;9724;51.194;6.856;2023-08-12T10:02:42;4.00;;;2.80;;
19183;SDS011;9724;51.194;6.856;2023-08-12T10:05:09;3.40;;;2.67;;
19183;SDS011;9724;51.194;6.856;2023-08-12T10:07:37;3.33;;;2.27;;
19183;SDS011;9724;51.194;6.856;2023-08-12T10:10:05;4.93;;;2.33;;
19183;SDS011;9724;51.194;6.856;2023-08-12T10:12:32;5.67;;;2.07;;
19183;SDS011;9724;51.194;6.856;2023-08-12T10:15:00;4.10;;;1.80;;
19183;SDS011;9724;51.194;6.856;2023-08-12T10:17:27;2.13;;;1.93;;
19183;SDS011;9724;51.194;6.856;2023-08-12T10:20:11;2.77;;;2.33;;
19183;SDS011;9724;51.194;6.856;2023-08-12T10:22:39;2.67;;;1.50;;
19183;SDS011;9724;51.194;6.856;2023-08-12T10:25:07;2.00;;;1.90;;
19183;SDS011;9724;51.194;6.856;2023-08-12T10:27:34;1.77;;;1.67;;
19183;SDS011;9724;51.194;6.856;2023-08-12T10:30:02;4.80;;;2.27;;
19183;SDS011;9724;51.194;6.856;2023-08-12T10:32:30;6.17;;;1.90;;
19183;SDS011;9724;51.194;6.856;2023-08-12T10:34:57;1.90;;;1.60;;
19183;SDS011;9724;51.194;6.856;2023-08-12T10:37:24;3.50;;;1.30;;
19183;SDS011;9724;51.194;6.856;2023-08-12T10:39:51;3.23;;;1.50;;
19183;SDS011;9724;51.194;6.856;2023-08-12T10:45:06;3.03;;;1.10;;
19183;SDS011;9724;51.194;6.856;2023-08-12T10:47:34;3.33;;;1.43;;
19183;SDS011;9724;51.194;6.856;2023-08-12T10:50:04;4.10;;;1.57;;
19183;SDS011;9724;51.194;6.856;2023-08-12T10:52:32;3.13;;;1.60;;
19183;SDS011;9724;51.194;6.856;2023-08-12T10:57:45;1.40;;;1.30;;
19183;SDS011;9724;51.194;6.856;2023-08-12T11:00:13;2.80;;;1.47;;
19183;SDS011;9724;51.194;6.856;2023-08-12T11:02:40;3.43;;;1.53;;
19183;SDS011;9724;51.194;6.856;2023-08-12T11:05:11;1.40;;;1.30;;
19183;SDS011;9724;51.194;6.856;2023-08-12T11:07:38;5.60;;;1.43;;
19183;SDS011;9724;51.194;6.856;2023-08-12T11:10:10;2.90;;;1.53;;
19183;SDS011;9724;51.194;6.856;2023-08-12T11:12:37;2.83;;;1.70;;
19183;SDS011;9724;51.194;6.856;2023-08-12T11:15:04;1.63;;;1.43;;
19183;SDS011;9724;51.194;6.856;2023-08-12T11:17:33;1.50;;;1.40;;
19183;SDS011;9724;51.194;6.856;2023-08-12T11:20:00;2.07;;;1.53;;
19183;SDS011;9724;51.194;6.856;2023-08-12T11:22:29;2.33;;;1.60;;
19183;SDS011;9724;51.194;6.856;2023-08-12T11:24:56;3.27;;;1.80;;
19183;SDS011;9724;51.194;6.856;2023-08-12T11:27:22;3.27;;;1.93;;
19183;SDS011;9724;51.194;6.856;2023-08-12T11:29:49;2.63;;;2.00;;
19183;SDS011;9724;51.194;6.856;2023-08-12T11:32:16;3.87;;;2.27;;
19183;SDS011;9724;51.194;6.856;2023-08-12T11:34:43;3.37;;;1.70;;
19183;SDS011;9724;51.194;6.856;2023-08-12T11:37:09;3.60;;;1.93;;
19183;SDS011;9724;51.194;6.856;2023-08-12T11:39:36;3.97;;;2.07;;
19183;SDS011;9724;51.194;6.856;2023-08-12T11:42:03;3.83;;;1.70;;
19183;SDS011;9724;51.194;6.856;2023-08-12T11:44:29;2.83;;;1.70;;
19183;SDS011;9724;51.194;6.856;2023-08-12T11:46:58;1.70;;;1.60;;
19183;SDS011;9724;51.194;6.856;2023-08-12T11:49:24;3.30;;;1.83;;
19183;SDS011;9724;51.194;6.856;2023-08-12T11:51:52;3.43;;;1.90;;
19183;SDS011;9724;51.194;6.856;2023-08-12T11:54:18;3.47;;;1.67;;
19183;SDS011;9724;51.194;6.856;2023-08-12T11:56:45;5.33;;;1.80;;
19183;SDS011;9724;51.194;6.856;2023-08-12T11:59:12;2.10;;;1.90;;
19183;SDS011;9724;51.194;6.856;2023-08-12T12:01:39;1.73;;;1.30;;
19183;SDS011;9724;51.194;6.856;2023-08-12T12:04:05;1.77;;;1.50;;
19183;SDS011;9724;51.194;6.856;2023-08-12T12:06:32;1.90;;;1.50;;
19183;SDS011;9724;51.194;6.856;2023-08-12T12:09:00;1.17;;;1.17;;
19183;SDS011;9724;51.194;6.856;2023-08-12T12:11:29;3.20;;;1.60;;
19183;SDS011;9724;51.194;6.856;2023-08-12T12:13:56;1.10;;;1.10;;
19183;SDS011;9724;51.194;6.856;2023-08-12T12:16:22;2.13;;;1.30;;
19183;SDS011;9724;51.194;6.856;2023-08-12T12:18:49;1.63;;;1.30;;
19183;SDS011;9724;51.194;6.856;2023-08-12T12:21:20;1.27;;;1.20;;
19183;SDS011;9724;51.194;6.856;2023-08-12T12:23:47;1.27;;;1.27;;
19183;SDS011;9724;51.194;6.856;2023-08-12T12:26:14;4.10;;;1.20;;
19183;SDS011;9724;51.194;6.856;2023-08-12T12:28:40;1.83;;;1.10;;
19183;SDS011;9724;51.194;6.856;2023-08-12T12:31:06;1.03;;;1.03;;
19183;SDS011;9724;51.194;6.856;2023-08-12T12:33:33;1.20;;;1.10;;
19183;SDS011;9724;51.194;6.856;2023-08-12T12:36:00;0.90;;;0.90;;
19183;SDS011;9724;51.194;6.856;2023-08-12T12:38:30;0.80;;;0.80;;
19183;SDS011;9724;51.194;6.856;2023-08-12T12:40:57;3.83;;;0.90;;
19183;SDS011;9724;51.194;6.856;2023-08-12T12:43:24;0.90;;;0.90;;
19183;SDS011;9724;51.194;6.856;2023-08-12T12:45:50;1.80;;;0.90;;
19183;SDS011;9724;51.194;6.856;2023-08-12T12:48:17;1.03;;;0.93;;
19183;SDS011;9724;51.194;6.856;2023-08-12T12:50:43;1.30;;;1.20;;
19183;SDS011;9724;51.194;6.856;2023-08-12T12:53:09;1.10;;;1.00;;
19183;SDS011;9724;51.194;6.856;2023-08-12T12:55:36;1.53;;;1.43;;
19183;SDS011;9724;51.194;6.856;2023-08-12T12:58:03;1.67;;;1.53;;
19183;SDS011;9724;51.194;6.856;2023-08-12T13:00:30;2.00;;;1.50;;
19183;SDS011;9724;51.194;6.856;2023-08-12T13:02:57;2.63;;;1.83;;
19183;SDS011;9724;51.194;6.856;2023-08-12T13:05:24;4.73;;;1.80;;
19183;SDS011;9724;51.194;6.856;2023-08-12T13:07:50;5.60;;;2.90;;
19183;SDS011;9724;51.194;6.856;2023-08-12T13:10:16;4.90;;;3.93;;
19183;SDS011;9724;51.194;6.856;2023-08-12T13:12:43;3.47;;;3.17;;
19183;SDS011;9724;51.194;6.856;2023-08-12T13:15:09;6.43;;;5.90;;
19183;SDS011;9724;51.194;6.856;2023-08-12T13:17:38;4.47;;;4.07;;
19183;SDS011;9724;51.194;6.856;2023-08-12T13:20:05;5.20;;;4.43;;
19183;SDS011;9724;51.194;6.856;2023-08-12T13:22:32;8.50;;;5.40;;
19183;SDS011;9724;51.194;6.856;2023-08-12T13:24:59;4.67;;;4.27;;
19183;SDS011;9724;51.194;6.856;2023-08-12T13:27:26;9.10;;;6.53;;
19183;SDS011;9724;51.194;6.856;2023-08-12T13:29:52;8.63;;;6.00;;
19183;SDS011;9724;51.194;6.856;2023-08-12T13:32:19;5.60;;;4.60;;
19183;SDS011;9724;51.194;6.856;2023-08-12T13:34:46;4.77;;;4.37;;
19183;SDS011;9724;51.194;6.856;2023-08-12T13:37:13;5.10;;;4.60;;
19183;SDS011;9724;51.194;6.856;2023-08-12T13:39:39;12.43;;;6.90;;
19183;SDS011;9724;51.194;6.856;2023-08-12T13:42:06;5.47;;;4.83;;
19183;SDS011;9724;51.194;6.856;2023-08-12T13:44:33;5.30;;;4.80;;
19183;SDS011;9724;51.194;6.856;2023-08-12T13:47:00;8.47;;;4.60;;
19183;SDS011;9724;51.194;6.856;2023-08-12T13:49:27;7.50;;;6.00;;
19183;SDS011;9724;51.194;6.856;2023-08-12T13:51:54;5.93;;;4.73;;
19183;SDS011;9724;51.194;6.856;2023-08-12T13:54:21;8.87;;;5.57;;
19183;SDS011;9724;51.194;6.856;2023-08-12T13:56:47;6.47;;;5.07;;
19183;SDS011;9724;51.194;6.856;2023-08-12T13:59:14;6.03;;;4.67;;
19183;SDS011;9724;51.194;6.856;2023-08-12T14:01:41;5.03;;;4.50;;
19183;SDS011;9724;51.194;6.856;2023-08-12T14:04:09;5.10;;;4.07;;
19183;SDS011;9724;51.194;6.856;2023-08-12T14:06:35;4.20;;;3.90;;
19183;SDS011;9724;51.194;6.856;2023-08-12T14:09:02;4.20;;;3.90;;
19183;SDS011;9724;51.194;6.856;2023-08-12T14:11:29;4.03;;;3.40;;
19183;SDS011;9724;51.194;6.856;2023-08-12T14:13:56;3.00;;;2.80;;
19183;SDS011;9724;51.194;6.856;2023-08-12T14:16:24;2.77;;;2.67;;
19183;SDS011;9724;51.194;6.856;2023-08-12T14:18:50;3.33;;;3.13;;
19183;SDS011;9724;51.194;6.856;2023-08-12T14:21:18;4.50;;;2.70;;
19183;SDS011;9724;51.194;6.856;2023-08-12T14:23:45;3.93;;;3.13;;
19183;SDS011;9724;51.194;6.856;2023-08-12T14:26:12;2.60;;;2.50;;
19183;SDS011;9724;51.194;6.856;2023-08-12T14:28:38;3.80;;;3.27;;
19183;SDS011;9724;51.194;6.856;2023-08-12T14:31:05;3.20;;;2.87;;
19183;SDS011;9724;51.194;6.856;2023-08-12T14:33:32;3.33;;;2.80;;
19183;SDS011;9724;51.194;6.856;2023-08-12T14:35:58;2.20;;;2.10;;
19183;SDS011;9724;51.194;6.856;2023-08-12T14:38:24;2.20;;;2.10;;
19183;SDS011;9724;51.194;6.856;2023-08-12T14:40:51;2.10;;;2.00;;
19183;SDS011;9724;51.194;6.856;2023-08-12T14:43:18;4.30;;;1.90;;
19183;SDS011;9724;51.194;6.856;2023-08-12T14:45:45;2.80;;;2.07;;
19183;SDS011;9724;51.194;6.856;2023-08-12T14:48:11;3.33;;;2.00;;
19183;SDS011;9724;51.194;6.856;2023-08-12T14:50:40;4.57;;;1.77;;
19183;SDS011;9724;51.194;6.856;2023-08-12T14:53:07;4.30;;;2.20;;